Date,TemperatureHighF,TemperatureAvgF,TemperatureLowF,DewpointHighF,DewpointAvgF,DewpointLowF,HumidityHigh,HumidityAvg,HumidityLow,PressureMaxIn,PressureMinIn,WindSpeedMaxMPH,WindSpeedAvgMPH,GustSpeedMaxMPH,PrecipitationSumIn
2013-5-1,68.7,57.1,45.3,44.8,34.9,25.4,79,47,23,30.03,29.88,16,4,16,0.00
2013-5-2,67.1,55.0,43.5,49.1,42.8,35.6,95,67,35,30.00,29.94,14,3,14,0.02
2013-5-3,66.9,55.0,42.3,48.4,40.8,33.4,95,64,33,30.06,29.94,14,3,16,0.00
2013-5-4,67.5,57.5,51.1,50.2,43.8,34.3,92,63,33,30.12,30.00,12,2,13,0.03
2013-5-5,71.6,57.1,42.4,49.0,41.0,30.0,98,63,23,30.12,30.03,12,3,14,0.01
2013-5-6,75.4,60.0,44.1,49.1,40.9,31.0,93,57,22,30.09,30.03,12,3,14,0.00
2013-5-7,75.4,63.4,56.1,54.4,45.4,38.1,88,56,30,30.06,29.97,14,2,14,0.02
2013-5-8,78.1,64.0,54.0,59.3,51.0,42.3,95,69,30,30.06,29.97,14,3,18,0.16
2013-5-9,73.2,64.6,58.1,59.4,53.3,43.2,97,71,35,30.06,29.97,16,3,16,0.00
2013-5-10,64.0,58.1,54.3,57.7,52.9,47.1,96,83,66,30.09,29.97,9,3,9,0.04
2013-5-11,66.9,58.0,51.3,48.8,43.6,35.7,86,60,37,30.15,30.06,16,3,18,0.00
2013-5-12,68.2,58.1,51.4,47.9,43.8,36.2,85,61,36,30.18,30.09,12,2,14,0.00
2013-5-13,72.9,61.0,52.9,51.3,45.9,39.4,84,60,35,30.18,30.06,10,2,11,0.00
2013-5-14,69.8,59.7,50.7,53.8,48.0,41.4,95,67,43,30.09,29.74,18,4,20,0.01
2013-5-15,59.7,55.7,52.0,51.7,46.7,41.4,96,73,53,29.74,29.56,11,2,14,0.50
2013-5-16,56.5,51.1,47.3,50.8,45.5,36.4,98,82,50,29.56,29.44,14,4,17,0.13
2013-5-17,63.7,52.4,43.0,46.2,37.2,25.6,98,62,24,29.62,29.47,21,4,22,0.00
2013-5-18,61.3,54.0,48.9,49.2,38.7,26.8,97,61,28,29.74,29.50,23,6,27,0.64
2013-5-19,56.7,50.4,43.5,48.0,39.3,31.8,96,67,45,30.03,29.74,17,3,17,0.88
2013-5-20,56.3,50.7,47.3,49.2,45.8,36.2,96,84,48,30.03,29.97,11,3,11,0.27
2013-5-21,63.7,54.0,42.8,48.8,42.1,34.3,98,69,35,30.03,29.88,10,2,12,0.00
2013-5-22,72.7,59.3,45.9,47.7,42.5,34.0,94,59,25,29.91,29.79,16,3,16,0.00
2013-5-23,67.6,56.1,44.6,51.1,41.5,31.4,93,63,27,29.91,29.82,14,3,14,0.01
2013-5-24,58.3,52.3,46.0,50.8,42.3,29.9,95,72,35,29.94,29.82,18,3,18,0.16
2013-5-25,57.9,51.2,47.3,49.1,44.2,31.0,98,79,37,30.06,29.88,17,3,17,0.03
2013-5-26,65.5,51.5,36.3,47.8,39.5,29.8,98,68,28,30.06,29.94,14,3,17,0.01
2013-5-27,69.3,57.0,46.8,53.5,45.1,37.8,96,67,35,29.94,29.79,22,3,22,0.07
2013-5-28,66.2,53.0,44.8,48.9,44.6,37.4,98,76,36,29.79,29.65,17,4,19,0.35
2013-5-29,58.3,49.1,44.6,49.2,42.4,30.2,98,80,40,29.79,29.68,23,3,23,0.44
2013-5-30,63.5,50.8,37.6,49.5,39.7,31.2,98,71,32,29.85,29.76,12,3,14,0.01
2013-5-31,69.8,58.4,50.9,52.2,43.3,27.3,98,63,23,29.94,29.76,17,3,19,0.01